Terminal Aerodrome Forecast
Issued by NWS Detroit/Pontiac, MI

Home | Current Version | Previous Version | Text Only | Print | Product List | Glossary On
Versions: 1 2 3 4 5 6 7 8 9 10 11 12 13 14 15 16 17 18 19 20 21 22 23 24
567
FTUS43 KDTX 281120
TAFDTW
TAF
KDTW 281120Z 2812/2918 20006KT P6SM SCT035 BKN250
     FM281400 21012KT P6SM SCT110 BKN250
     FM282200 16008KT P6SM SCT060 OVC100
     FM290200 07005KT 6SM -SHRA OVC040
     FM290800 35006KT 6SM BR BKN022
     FM291200 01010KT P6SM SCT022 BKN040=

USA.gov is the U.S. government's official web portal to all federal, state and local government web resources and services.